sensor_id;sensor_type;location;lat;lon;timestamp;pressure;altitude;pressure_sealevel;temperature;humidity
28665;BME280;15850;47.524;7.814;2023-06-10T00:01:57;97264.72;;;17.28;100.00
28665;BME280;15850;47.524;7.814;2023-06-10T00:04:22;97264.72;;;17.28;100.00
28665;BME280;15850;47.524;7.814;2023-06-10T00:06:49;97198.31;;;16.83;100.00
28665;BME280;15850;47.524;7.814;2023-06-10T00:09:15;97214.81;;;16.94;100.00
28665;BME280;15850;47.524;7.814;2023-06-10T00:11:41;97094.13;;;15.99;100.00
28665;BME280;15850;47.524;7.814;2023-06-10T00:14:07;97269.41;;;17.09;100.00
28665;BME280;15850;47.524;7.814;2023-06-10T00:16:33;97277.66;;;17.06;100.00
28665;BME280;15850;47.524;7.814;2023-06-10T00:18:59;97079.75;;;15.40;100.00
28665;BME280;15850;47.524;7.814;2023-06-10T00:21:25;97279.16;;;16.82;100.00
28665;BME280;15850;47.524;7.814;2023-06-10T00:23:52;97204.75;;;16.21;100.00
28665;BME280;15850;47.524;7.814;2023-06-10T00:26:17;97136.41;;;15.84;100.00
28665;BME280;15850;47.524;7.814;2023-06-10T00:28:44;97284.19;;;16.65;100.00
28665;BME280;15850;47.524;7.814;2023-06-10T00:31:10;97197.69;;;16.16;100.00
28665;BME280;15850;47.524;7.814;2023-06-10T00:33:35;97274.34;;;16.64;100.00
28665;BME280;15850;47.524;7.814;2023-06-10T00:36:02;96900.91;;;14.11;100.00
28665;BME280;15850;47.524;7.814;2023-06-10T00:38:27;97172.84;;;15.84;100.00
28665;BME280;15850;47.524;7.814;2023-06-10T00:40:54;97036.41;;;14.90;100.00
28665;BME280;15850;47.524;7.814;2023-06-10T00:43:20;97133.50;;;15.62;100.00
28665;BME280;15850;47.524;7.814;2023-06-10T00:45:46;97198.66;;;15.76;100.00
28665;BME280;15850;47.524;7.814;2023-06-10T00:48:11;97009.53;;;14.55;100.00
28665;BME280;15850;47.524;7.814;2023-06-10T00:50:37;96990.94;;;14.30;100.00
28665;BME280;15850;47.524;7.814;2023-06-10T00:53:02;96793.19;;;12.93;100.00
28665;BME280;15850;47.524;7.814;2023-06-10T00:55:29;97274.09;;;16.11;100.00
28665;BME280;15850;47.524;7.814;2023-06-10T00:57:56;97278.78;;;16.07;100.00
28665;BME280;15850;47.524;7.814;2023-06-10T01:00:21;97276.00;;;15.96;100.00
28665;BME280;15850;47.524;7.814;2023-06-10T01:02:47;97311.47;;;15.74;100.00
28665;BME280;15850;47.524;7.814;2023-06-10T01:05:12;97248.06;;;15.35;100.00
28665;BME280;15850;47.524;7.814;2023-06-10T01:07:42;97277.34;;;15.68;100.00
28665;BME280;15850;47.524;7.814;2023-06-10T01:10:12;97105.09;;;14.71;100.00
28665;BME280;15850;47.524;7.814;2023-06-10T01:12:43;97271.25;;;15.93;100.00
28665;BME280;15850;47.524;7.814;2023-06-10T01:15:12;97275.19;;;15.99;100.00
28665;BME280;15850;47.524;7.814;2023-06-10T01:17:55;97275.66;;;16.08;100.00
28665;BME280;15850;47.524;7.814;2023-06-10T01:20:22;97273.25;;;16.00;100.00
28665;BME280;15850;47.524;7.814;2023-06-10T01:22:50;96938.19;;;13.85;100.00
28665;BME280;15850;47.524;7.814;2023-06-10T01:25:17;97255.84;;;15.74;100.00
28665;BME280;15850;47.524;7.814;2023-06-10T01:27:46;97170.78;;;15.15;100.00
28665;BME280;15850;47.524;7.814;2023-06-10T01:30:15;97284.47;;;15.77;100.00
28665;BME280;15850;47.524;7.814;2023-06-10T01:32:45;97278.84;;;15.66;100.00
28665;BME280;15850;47.524;7.814;2023-06-10T01:35:15;97272.72;;;15.32;100.00
28665;BME280;15850;47.524;7.814;2023-06-10T01:37:43;97275.81;;;15.26;100.00
28665;BME280;15850;47.524;7.814;2023-06-10T01:40:12;97205.56;;;14.67;100.00
28665;BME280;15850;47.524;7.814;2023-06-10T01:42:38;97024.50;;;13.53;100.00
28665;BME280;15850;47.524;7.814;2023-06-10T01:45:05;97280.66;;;15.44;100.00
28665;BME280;15850;47.524;7.814;2023-06-10T01:47:31;97065.75;;;14.08;100.00
28665;BME280;15850;47.524;7.814;2023-06-10T01:49:59;96903.00;;;13.09;100.00
28665;BME280;15850;47.524;7.814;2023-06-10T01:52:24;97144.16;;;14.64;100.00
28665;BME280;15850;47.524;7.814;2023-06-10T01:54:50;97281.41;;;15.41;100.00
28665;BME280;15850;47.524;7.814;2023-06-10T01:57:18;97179.38;;;14.69;100.00
28665;BME280;15850;47.524;7.814;2023-06-10T01:59:43;97299.81;;;15.40;100.00
28665;BME280;15850;47.524;7.814;2023-06-10T02:02:09;96871.88;;;12.54;100.00
28665;BME280;15850;47.524;7.814;2023-06-10T02:04:35;97217.31;;;14.67;100.00
28665;BME280;15850;47.524;7.814;2023-06-10T02:07:01;97294.50;;;15.17;100.00
28665;BME280;15850;47.524;7.814;2023-06-10T02:09:27;97304.06;;;14.93;100.00
28665;BME280;15850;47.524;7.814;2023-06-10T02:11:53;97199.28;;;14.32;100.00
28665;BME280;15850;47.524;7.814;2023-06-10T02:14:20;97313.88;;;14.98;100.00
28665;BME280;15850;47.524;7.814;2023-06-10T02:16:46;97307.56;;;14.94;100.00
28665;BME280;15850;47.524;7.814;2023-06-10T02:19:12;97302.78;;;14.84;100.00
28665;BME280;15850;47.524;7.814;2023-06-10T02:21:37;97298.97;;;14.95;100.00
28665;BME280;15850;47.524;7.814;2023-06-10T02:24:03;97247.25;;;14.53;100.00
28665;BME280;15850;47.524;7.814;2023-06-10T02:26:29;97132.34;;;13.89;100.00
28665;BME280;15850;47.524;7.814;2023-06-10T02:28:58;96989.06;;;13.00;100.00
28665;BME280;15850;47.524;7.814;2023-06-10T02:31:25;97286.03;;;14.92;100.00
28665;BME280;15850;47.524;7.814;2023-06-10T02:33:51;97312.09;;;15.16;100.00
28665;BME280;15850;47.524;7.814;2023-06-10T02:36:17;97232.28;;;14.47;100.00
28665;BME280;15850;47.524;7.814;2023-06-10T02:38:43;97280.19;;;14.60;100.00
28665;BME280;15850;47.524;7.814;2023-06-10T02:41:09;97316.56;;;14.94;100.00
28665;BME280;15850;47.524;7.814;2023-06-10T02:43:35;97312.41;;;14.70;100.00
28665;BME280;15850;47.524;7.814;2023-06-10T02:46:01;97326.41;;;14.65;100.00
28665;BME280;15850;47.524;7.814;2023-06-10T02:48:28;97313.94;;;14.68;100.00
28665;BME280;15850;47.524;7.814;2023-06-10T02:50:55;97320.47;;;14.60;100.00
28665;BME280;15850;47.524;7.814;2023-06-10T02:53:34;97057.19;;;12.89;100.00
28665;BME280;15850;47.524;7.814;2023-06-10T02:56:05;97268.03;;;14.27;100.00
28665;BME280;15850;47.524;7.814;2023-06-10T02:58:31;97259.88;;;14.31;100.00
28665;BME280;15850;47.524;7.814;2023-06-10T03:00:57;97319.00;;;14.69;100.00
28665;BME280;15850;47.524;7.814;2023-06-10T03:03:23;97210.75;;;13.81;100.00
28665;BME280;15850;47.524;7.814;2023-06-10T03:05:59;97319.66;;;14.59;100.00
28665;BME280;15850;47.524;7.814;2023-06-10T03:08:25;97333.50;;;14.43;100.00
28665;BME280;15850;47.524;7.814;2023-06-10T03:10:51;97246.63;;;13.76;100.00
28665;BME280;15850;47.524;7.814;2023-06-10T03:13:18;97266.44;;;13.96;100.00
28665;BME280;15850;47.524;7.814;2023-06-10T03:15:44;97332.19;;;14.60;100.00
28665;BME280;15850;47.524;7.814;2023-06-10T03:18:13;97328.63;;;14.56;100.00
28665;BME280;15850;47.524;7.814;2023-06-10T03:20:39;97337.44;;;14.72;100.00
28665;BME280;15850;47.524;7.814;2023-06-10T03:23:09;97229.31;;;13.95;100.00
28665;BME280;15850;47.524;7.814;2023-06-10T03:25:35;97273.31;;;14.13;100.00
28665;BME280;15850;47.524;7.814;2023-06-10T03:28:00;97362.31;;;14.60;100.00
28665;BME280;15850;47.524;7.814;2023-06-10T03:30:26;97337.34;;;14.65;100.00
28665;BME280;15850;47.524;7.814;2023-06-10T03:32:52;97340.00;;;14.58;100.00
28665;BME280;15850;47.524;7.814;2023-06-10T03:35:20;96996.69;;;12.11;100.00
28665;BME280;15850;47.524;7.814;2023-06-10T03:37:45;97348.06;;;14.47;100.00
28665;BME280;15850;47.524;7.814;2023-06-10T03:40:12;97100.66;;;13.01;100.00
28665;BME280;15850;47.524;7.814;2023-06-10T03:42:41;97347.19;;;14.43;100.00
28665;BME280;15850;47.524;7.814;2023-06-10T03:45:09;97353.78;;;14.39;100.00
28665;BME280;15850;47.524;7.814;2023-06-10T03:47:35;97356.09;;;14.37;100.00
28665;BME280;15850;47.524;7.814;2023-06-10T03:50:03;97356.47;;;14.35;100.00
28665;BME280;15850;47.524;7.814;2023-06-10T03:52:31;97353.41;;;14.40;100.00
28665;BME280;15850;47.524;7.814;2023-06-10T03:54:57;97344.16;;;14.48;100.00
28665;BME280;15850;47.524;7.814;2023-06-10T03:57:25;97261.88;;;14.04;100.00
28665;BME280;15850;47.524;7.814;2023-06-10T03:59:50;97297.31;;;14.27;100.00
28665;BME280;15850;47.524;7.814;2023-06-10T04:02:16;97130.16;;;13.42;100.00
28665;BME280;15850;47.524;7.814;2023-06-10T04:04:42;97363.75;;;14.80;100.00
28665;BME280;15850;47.524;7.814;2023-06-10T04:07:08;97310.69;;;14.59;100.00
28665;BME280;15850;47.524;7.814;2023-06-10T04:09:33;97347.69;;;14.79;100.00
28665;BME280;15850;47.524;7.814;2023-06-10T04:11:59;97349.31;;;14.84;100.00
28665;BME280;15850;47.524;7.814;2023-06-10T04:14:26;97348.00;;;15.04;100.00
28665;BME280;15850;47.524;7.814;2023-06-10T04:16:52;97345.66;;;15.06;100.00
28665;BME280;15850;47.524;7.814;2023-06-10T04:19:18;97000.63;;;12.89;100.00
28665;BME280;15850;47.524;7.814;2023-06-10T04:21:44;97199.59;;;14.24;100.00
28665;BME280;15850;47.524;7.814;2023-06-10T04:24:09;97341.06;;;15.14;100.00
28665;BME280;15850;47.524;7.814;2023-06-10T04:26:36;97322.63;;;15.11;100.00
28665;BME280;15850;47.524;7.814;2023-06-10T04:29:01;97421.41;;;15.62;100.00
28665;BME280;15850;47.524;7.814;2023-06-10T04:31:29;97351.72;;;15.63;100.00
28665;BME280;15850;47.524;7.814;2023-06-10T04:33:55;97358.84;;;15.71;100.00
28665;BME280;15850;47.524;7.814;2023-06-10T04:36:21;97119.38;;;14.16;100.00
28665;BME280;15850;47.524;7.814;2023-06-10T04:38:46;97021.28;;;13.44;100.00
28665;BME280;15850;47.524;7.814;2023-06-10T04:41:13;97230.47;;;14.92;100.00
28665;BME280;15850;47.524;7.814;2023-06-10T04:43:39;97368.38;;;15.85;100.00
28665;BME280;15850;47.524;7.814;2023-06-10T04:46:04;96995.66;;;13.55;100.00
28665;BME280;15850;47.524;7.814;2023-06-10T04:48:32;97362.34;;;16.16;100.00
28665;BME280;15850;47.524;7.814;2023-06-10T04:50:58;97374.84;;;16.07;100.00
28665;BME280;15850;47.524;7.814;2023-06-10T04:53:24;97300.47;;;15.67;100.00
28665;BME280;15850;47.524;7.814;2023-06-10T04:55:50;97379.59;;;16.13;100.00
28665;BME280;15850;47.524;7.814;2023-06-10T04:58:15;97031.84;;;14.16;100.00
28665;BME280;15850;47.524;7.814;2023-06-10T05:00:41;97122.69;;;14.73;100.00
28665;BME280;15850;47.524;7.814;2023-06-10T05:03:07;97372.00;;;16.55;100.00
28665;BME280;15850;47.524;7.814;2023-06-10T05:05:34;97370.84;;;16.56;100.00
28665;BME280;15850;47.524;7.814;2023-06-10T05:07:59;97368.94;;;16.71;100.00
28665;BME280;15850;47.524;7.814;2023-06-10T05:10:25;97314.53;;;16.21;100.00
28665;BME280;15850;47.524;7.814;2023-06-10T05:12:50;97374.91;;;16.76;100.00
28665;BME280;15850;47.524;7.814;2023-06-10T05:15:16;97372.84;;;16.66;100.00
28665;BME280;15850;47.524;7.814;2023-06-10T05:17:41;97332.78;;;16.54;100.00
28665;BME280;15850;47.524;7.814;2023-06-10T05:20:08;97374.22;;;17.04;100.00
28665;BME280;15850;47.524;7.814;2023-06-10T05:22:35;97381.31;;;17.12;100.00
28665;BME280;15850;47.524;7.814;2023-06-10T05:25:00;97385.66;;;17.21;100.00
28665;BME280;15850;47.524;7.814;2023-06-10T05:27:26;97389.56;;;17.12;100.00
28665;BME280;15850;47.524;7.814;2023-06-10T05:29:51;97390.41;;;17.38;100.00
28665;BME280;15850;47.524;7.814;2023-06-10T05:32:17;97259.81;;;16.60;100.00
28665;BME280;15850;47.524;7.814;2023-06-10T05:34:42;97384.56;;;17.50;100.00
28665;BME280;15850;47.524;7.814;2023-06-10T05:37:08;97327.91;;;17.13;100.00
28665;BME280;15850;47.524;7.814;2023-06-10T05:39:36;97326.34;;;17.05;100.00
28665;BME280;15850;47.524;7.814;2023-06-10T05:42:02;97414.06;;;17.68;100.00
28665;BME280;15850;47.524;7.814;2023-06-10T05:44:27;97396.03;;;17.77;100.00
28665;BME280;15850;47.524;7.814;2023-06-10T05:46:53;97387.41;;;17.86;100.00
28665;BME280;15850;47.524;7.814;2023-06-10T05:49:18;96901.03;;;14.95;100.00
28665;BME280;15850;47.524;7.814;2023-06-10T05:51:44;97395.25;;;18.23;100.00
28665;BME280;15850;47.524;7.814;2023-06-10T05:54:09;97395.25;;;18.27;100.00
28665;BME280;15850;47.524;7.814;2023-06-10T05:56:36;97348.84;;;18.00;100.00
28665;BME280;15850;47.524;7.814;2023-06-10T05:59:02;97392.47;;;18.48;100.00
28665;BME280;15850;47.524;7.814;2023-06-10T06:01:27;97388.13;;;18.62;100.00
28665;BME280;15850;47.524;7.814;2023-06-10T06:03:53;97404.66;;;18.72;100.00
28665;BME280;15850;47.524;7.814;2023-06-10T06:06:18;97229.34;;;17.51;100.00
28665;BME280;15850;47.524;7.814;2023-06-10T06:08:44;97160.25;;;17.24;100.00
28665;BME280;15850;47.524;7.814;2023-06-10T06:11:09;97362.09;;;18.84;100.00
28665;BME280;15850;47.524;7.814;2023-06-10T06:13:36;97391.16;;;19.03;100.00
28665;BME280;15850;47.524;7.814;2023-06-10T06:16:02;97153.16;;;17.59;100.00
28665;BME280;15850;47.524;7.814;2023-06-10T06:18:27;97417.81;;;19.35;100.00
28665;BME280;15850;47.524;7.814;2023-06-10T06:20:53;97383.13;;;19.41;100.00
28665;BME280;15850;47.524;7.814;2023-06-10T06:23:18;97387.78;;;19.51;100.00
28665;BME280;15850;47.524;7.814;2023-06-10T06:25:44;97303.69;;;19.11;100.00
28665;BME280;15850;47.524;7.814;2023-06-10T06:28:09;97288.69;;;19.19;100.00
28665;BME280;15850;47.524;7.814;2023-06-10T06:30:36;97380.44;;;19.89;100.00
28665;BME280;15850;47.524;7.814;2023-06-10T06:33:02;97117.56;;;18.25;100.00
28665;BME280;15850;47.524;7.814;2023-06-10T06:35:30;97335.16;;;19.80;98.06
28665;BME280;15850;47.524;7.814;2023-06-10T06:37:55;97125.72;;;18.43;100.00
28665;BME280;15850;47.524;7.814;2023-06-10T06:40:26;97280.59;;;19.46;100.00
28665;BME280;15850;47.524;7.814;2023-06-10T06:42:51;97336.22;;;19.97;99.69
28665;BME280;15850;47.524;7.814;2023-06-10T06:45:38;97377.69;;;20.34;98.47
28665;BME280;15850;47.524;7.814;2023-06-10T06:48:05;97372.38;;;20.58;98.26
28665;BME280;15850;47.524;7.814;2023-06-10T06:50:30;97359.69;;;20.19;98.09
28665;BME280;15850;47.524;7.814;2023-06-10T06:52:56;97377.13;;;20.57;98.07
28665;BME280;15850;47.524;7.814;2023-06-10T06:55:21;97244.22;;;19.62;97.94
28665;BME280;15850;47.524;7.814;2023-06-10T06:57:47;97333.69;;;20.13;97.37
28665;BME280;15850;47.524;7.814;2023-06-10T07:00:13;97385.09;;;20.45;96.26
28665;BME280;15850;47.524;7.814;2023-06-10T07:02:40;97338.75;;;20.22;93.95
28665;BME280;15850;47.524;7.814;2023-06-10T07:05:06;97339.50;;;19.81;98.13
28665;BME280;15850;47.524;7.814;2023-06-10T07:07:32;97379.91;;;20.09;97.75
28665;BME280;15850;47.524;7.814;2023-06-10T07:09:58;97371.59;;;20.12;99.86
28665;BME280;15850;47.524;7.814;2023-06-10T07:12:23;97377.19;;;20.02;99.66
28665;BME280;15850;47.524;7.814;2023-06-10T07:14:49;97110.22;;;18.64;96.64
28665;BME280;15850;47.524;7.814;2023-06-10T07:17:14;97335.22;;;20.21;97.28
28665;BME280;15850;47.524;7.814;2023-06-10T07:19:41;97381.91;;;20.53;96.03
28665;BME280;15850;47.524;7.814;2023-06-10T07:22:07;97388.59;;;20.49;99.03
28665;BME280;15850;47.524;7.814;2023-06-10T07:24:32;97337.56;;;20.64;96.92
28665;BME280;15850;47.524;7.814;2023-06-10T07:26:58;97335.53;;;20.68;92.66
28665;BME280;15850;47.524;7.814;2023-06-10T07:29:23;97399.72;;;20.86;93.63
28665;BME280;15850;47.524;7.814;2023-06-10T07:31:49;97144.34;;;19.36;93.14
28665;BME280;15850;47.524;7.814;2023-06-10T07:34:15;97376.44;;;20.84;92.16
28665;BME280;15850;47.524;7.814;2023-06-10T07:36:41;97383.78;;;20.98;93.42
28665;BME280;15850;47.524;7.814;2023-06-10T07:39:07;97184.91;;;19.84;92.02
28665;BME280;15850;47.524;7.814;2023-06-10T07:41:32;97079.66;;;18.99;89.46
28665;BME280;15850;47.524;7.814;2023-06-10T07:43:58;97187.13;;;19.97;88.71
28665;BME280;15850;47.524;7.814;2023-06-10T07:46:24;97127.41;;;19.76;88.47
28665;BME280;15850;47.524;7.814;2023-06-10T07:48:49;97382.16;;;21.31;89.94
28665;BME280;15850;47.524;7.814;2023-06-10T07:51:15;97377.50;;;21.55;88.23
28665;BME280;15850;47.524;7.814;2023-06-10T07:53:42;97384.31;;;21.50;87.00
28665;BME280;15850;47.524;7.814;2023-06-10T07:56:08;97385.59;;;21.42;85.38
28665;BME280;15850;47.524;7.814;2023-06-10T07:58:33;97376.34;;;21.56;85.14
28665;BME280;15850;47.524;7.814;2023-06-10T08:00:59;97366.16;;;21.49;84.75
28665;BME280;15850;47.524;7.814;2023-06-10T08:03:24;97382.22;;;21.58;82.25
28665;BME280;15850;47.524;7.814;2023-06-10T08:05:50;97381.66;;;21.70;84.98
28665;BME280;15850;47.524;7.814;2023-06-10T08:08:15;97380.84;;;21.97;82.73
28665;BME280;15850;47.524;7.814;2023-06-10T08:10:42;97384.63;;;21.83;83.38
28665;BME280;15850;47.524;7.814;2023-06-10T08:13:08;97080.75;;;19.88;80.94
28665;BME280;15850;47.524;7.814;2023-06-10T08:15:33;97376.88;;;21.98;83.38
28665;BME280;15850;47.524;7.814;2023-06-10T08:17:59;97384.00;;;21.72;83.18
28665;BME280;15850;47.524;7.814;2023-06-10T08:20:25;97382.09;;;21.38;80.16
28665;BME280;15850;47.524;7.814;2023-06-10T08:22:50;97343.88;;;21.29;80.89
28665;BME280;15850;47.524;7.814;2023-06-10T08:25:16;97298.72;;;21.05;79.20
28665;BME280;15850;47.524;7.814;2023-06-10T08:27:43;97016.56;;;19.46;76.65
28665;BME280;15850;47.524;7.814;2023-06-10T08:30:09;97213.41;;;21.04;75.39
28665;BME280;15850;47.524;7.814;2023-06-10T08:32:34;97289.72;;;21.55;82.67
28665;BME280;15850;47.524;7.814;2023-06-10T08:35:00;97369.19;;;22.09;70.70
28665;BME280;15850;47.524;7.814;2023-06-10T08:37:25;97145.66;;;20.65;69.22
28665;BME280;15850;47.524;7.814;2023-06-10T08:39:51;97154.69;;;20.96;67.88
28665;BME280;15850;47.524;7.814;2023-06-10T08:42:21;97334.38;;;22.32;67.43
28665;BME280;15850;47.524;7.814;2023-06-10T08:44:53;97376.88;;;22.45;66.76
28665;BME280;15850;47.524;7.814;2023-06-10T08:47:19;97327.97;;;22.11;72.31
28665;BME280;15850;47.524;7.814;2023-06-10T08:49:47;97356.41;;;22.62;68.31
28665;BME280;15850;47.524;7.814;2023-06-10T08:52:15;97364.28;;;22.84;63.34
28665;BME280;15850;47.524;7.814;2023-06-10T08:54:42;97354.72;;;22.45;65.11
28665;BME280;15850;47.524;7.814;2023-06-10T08:57:09;97327.91;;;22.38;62.09
28665;BME280;15850;47.524;7.814;2023-06-10T08:59:34;97304.63;;;22.12;63.72
28665;BME280;15850;47.524;7.814;2023-06-10T09:02:02;97287.81;;;21.99;64.90
28665;BME280;15850;47.524;7.814;2023-06-10T09:04:29;96958.78;;;19.97;66.20
28665;BME280;15850;47.524;7.814;2023-06-10T09:06:55;97354.63;;;22.72;64.46
28665;BME280;15850;47.524;7.814;2023-06-10T09:09:23;97357.22;;;22.39;64.15
28665;BME280;15850;47.524;7.814;2023-06-10T09:11:48;97350.69;;;22.49;62.12
28665;BME280;15850;47.524;7.814;2023-06-10T09:14:14;97127.22;;;21.32;61.64
28665;BME280;15850;47.524;7.814;2023-06-10T09:16:40;97350.72;;;22.69;62.09
28665;BME280;15850;47.524;7.814;2023-06-10T09:19:08;97316.44;;;22.80;60.52
28665;BME280;15850;47.524;7.814;2023-06-10T09:21:34;97344.44;;;23.25;61.40
28665;BME280;15850;47.524;7.814;2023-06-10T09:23:59;97344.53;;;23.21;59.25
28665;BME280;15850;47.524;7.814;2023-06-10T09:26:28;97342.28;;;23.33;58.05
28665;BME280;15850;47.524;7.814;2023-06-10T09:29:02;97283.22;;;22.96;56.18
28665;BME280;15850;47.524;7.814;2023-06-10T09:31:28;97342.69;;;23.51;55.14
28665;BME280;15850;47.524;7.814;2023-06-10T09:33:53;97334.19;;;23.58;55.00
28665;BME280;15850;47.524;7.814;2023-06-10T09:36:23;97307.13;;;23.62;56.31
28665;BME280;15850;47.524;7.814;2023-06-10T09:38:49;97338.75;;;23.85;60.40
28665;BME280;15850;47.524;7.814;2023-06-10T09:41:15;97337.88;;;24.04;53.44
28665;BME280;15850;47.524;7.814;2023-06-10T09:43:42;97336.47;;;24.12;52.54
28665;BME280;15850;47.524;7.814;2023-06-10T09:46:14;97323.47;;;23.93;50.32
28665;BME280;15850;47.524;7.814;2023-06-10T09:48:41;97332.09;;;23.62;53.24
28665;BME280;15850;47.524;7.814;2023-06-10T09:51:08;97328.16;;;23.96;50.00
28665;BME280;15850;47.524;7.814;2023-06-10T09:53:36;97270.91;;;23.66;50.19
28665;BME280;15850;47.524;7.814;2023-06-10T09:56:01;97299.75;;;24.05;50.65
28665;BME280;15850;47.524;7.814;2023-06-10T09:58:34;97314.78;;;24.07;49.40
28665;BME280;15850;47.524;7.814;2023-06-10T10:01:01;97326.41;;;24.19;50.33
28665;BME280;15850;47.524;7.814;2023-06-10T10:03:29;97331.97;;;24.02;49.47
28665;BME280;15850;47.524;7.814;2023-06-10T10:05:58;97326.06;;;23.84;50.69
28665;BME280;15850;47.524;7.814;2023-06-10T10:08:23;97267.72;;;23.67;51.46
28665;BME280;15850;47.524;7.814;2023-06-10T10:10:50;97319.03;;;24.12;50.42
28665;BME280;15850;47.524;7.814;2023-06-10T10:13:16;97320.34;;;23.91;49.93
28665;BME280;15850;47.524;7.814;2023-06-10T10:15:43;97318.94;;;24.15;48.65
28665;BME280;15850;47.524;7.814;2023-06-10T10:18:10;97312.78;;;24.37;49.24
28665;BME280;15850;47.524;7.814;2023-06-10T10:20:43;97301.97;;;24.43;49.38
28665;BME280;15850;47.524;7.814;2023-06-10T10:23:13;97314.09;;;24.78;49.23
28665;BME280;15850;47.524;7.814;2023-06-10T10:25:42;97325.44;;;24.71;49.40
28665;BME280;15850;47.524;7.814;2023-06-10T10:28:11;97235.56;;;24.15;46.40
28665;BME280;15850;47.524;7.814;2023-06-10T10:30:40;97308.22;;;24.89;43.68
28665;BME280;15850;47.524;7.814;2023-06-10T10:33:09;97308.53;;;25.33;42.09
28665;BME280;15850;47.524;7.814;2023-06-10T10:35:38;97309.88;;;25.41;44.03
28665;BME280;15850;47.524;7.814;2023-06-10T10:38:05;97197.34;;;24.61;42.31
28665;BME280;15850;47.524;7.814;2023-06-10T10:40:31;97312.09;;;25.59;41.78
28665;BME280;15850;47.524;7.814;2023-06-10T10:42:58;97309.06;;;25.78;41.32
28665;BME280;15850;47.524;7.814;2023-06-10T10:45:27;97077.34;;;24.08;40.10
28665;BME280;15850;47.524;7.814;2023-06-10T10:47:53;97310.88;;;25.85;40.51
28665;BME280;15850;47.524;7.814;2023-06-10T10:50:20;97309.06;;;26.04;40.39
28665;BME280;15850;47.524;7.814;2023-06-10T10:52:56;97302.38;;;26.01;40.21
28665;BME280;15850;47.524;7.814;2023-06-10T10:55:22;97296.91;;;26.11;39.50
28665;BME280;15850;47.524;7.814;2023-06-10T10:57:54;97282.44;;;26.03;38.93
28665;BME280;15850;47.524;7.814;2023-06-10T11:00:27;97298.59;;;26.43;40.31
28665;BME280;15850;47.524;7.814;2023-06-10T11:02:53;97306.25;;;26.52;41.52
28665;BME280;15850;47.524;7.814;2023-06-10T11:05:31;97304.25;;;26.52;39.23
28665;BME280;15850;47.524;7.814;2023-06-10T11:07:57;97302.91;;;26.09;40.30
28665;BME280;15850;47.524;7.814;2023-06-10T11:10:29;97300.97;;;25.59;40.04
28665;BME280;15850;47.524;7.814;2023-06-10T11:12:55;97297.28;;;25.49;40.80
28665;BME280;15850;47.524;7.814;2023-06-10T11:15:23;97297.59;;;26.02;40.11
28665;BME280;15850;47.524;7.814;2023-06-10T11:18:13;97291.72;;;26.79;39.18
28665;BME280;15850;47.524;7.814;2023-06-10T11:20:51;97284.59;;;27.00;38.91
28665;BME280;15850;47.524;7.814;2023-06-10T11:23:32;97245.31;;;26.94;40.23
28665;BME280;15850;47.524;7.814;2023-06-10T11:26:20;97272.47;;;27.25;39.50
28665;BME280;15850;47.524;7.814;2023-06-10T11:29:05;97150.28;;;26.44;38.89
28665;BME280;15850;47.524;7.814;2023-06-10T11:31:32;97062.78;;;25.76;36.61
28665;BME280;15850;47.524;7.814;2023-06-10T11:34:00;97213.88;;;27.03;38.50
28665;BME280;15850;47.524;7.814;2023-06-10T11:36:27;97295.09;;;27.49;36.85
28665;BME280;15850;47.524;7.814;2023-06-10T11:38:55;97175.06;;;26.64;37.67
28665;BME280;15850;47.524;7.814;2023-06-10T11:41:21;97224.31;;;26.80;36.35
28665;BME280;15850;47.524;7.814;2023-06-10T11:43:48;97257.69;;;27.15;36.30
28665;BME280;15850;47.524;7.814;2023-06-10T11:46:14;97098.81;;;26.36;36.42
28665;BME280;15850;47.524;7.814;2023-06-10T11:48:48;97223.91;;;27.22;36.06
28665;BME280;15850;47.524;7.814;2023-06-10T11:51:15;96921.94;;;25.22;36.59
28665;BME280;15850;47.524;7.814;2023-06-10T11:53:43;97198.16;;;27.27;35.79
28665;BME280;15850;47.524;7.814;2023-06-10T11:56:09;97247.06;;;27.81;36.30
28665;BME280;15850;47.524;7.814;2023-06-10T11:58:35;97210.97;;;27.56;36.13
28665;BME280;15850;47.524;7.814;2023-06-10T12:01:00;96941.59;;;26.02;36.10
28665;BME280;15850;47.524;7.814;2023-06-10T12:03:26;97265.13;;;28.08;35.26
28665;BME280;15850;47.524;7.814;2023-06-10T12:05:56;96918.53;;;26.02;35.97
28665;BME280;15850;47.524;7.814;2023-06-10T12:08:23;97103.22;;;27.27;36.19
28665;BME280;15850;47.524;7.814;2023-06-10T12:10:49;97130.63;;;27.78;35.54
28665;BME280;15850;47.524;7.814;2023-06-10T12:13:15;97259.72;;;28.50;35.47
28665;BME280;15850;47.524;7.814;2023-06-10T12:15:40;97198.81;;;28.08;35.71
28665;BME280;15850;47.524;7.814;2023-06-10T12:18:06;97257.34;;;28.67;33.25
28665;BME280;15850;47.524;7.814;2023-06-10T12:20:32;97084.94;;;27.81;35.17
28665;BME280;15850;47.524;7.814;2023-06-10T12:22:59;97256.13;;;28.68;33.78
28665;BME280;15850;47.524;7.814;2023-06-10T12:25:27;97245.88;;;28.65;33.35
28665;BME280;15850;47.524;7.814;2023-06-10T12:27:55;97125.28;;;27.71;33.70
28665;BME280;15850;47.524;7.814;2023-06-10T12:30:21;96904.56;;;26.42;33.80
28665;BME280;15850;47.524;7.814;2023-06-10T12:32:47;96977.63;;;26.59;34.53
28665;BME280;15850;47.524;7.814;2023-06-10T12:35:16;97235.94;;;28.18;37.09
28665;BME280;15850;47.524;7.814;2023-06-10T12:37:41;97237.91;;;28.82;34.79
28665;BME280;15850;47.524;7.814;2023-06-10T12:40:08;97245.50;;;28.91;34.82
28665;BME280;15850;47.524;7.814;2023-06-10T12:42:35;97227.94;;;29.33;34.17
28665;BME280;15850;47.524;7.814;2023-06-10T12:45:02;97113.38;;;28.77;32.99
28665;BME280;15850;47.524;7.814;2023-06-10T12:47:31;97227.47;;;28.92;34.54
28665;BME280;15850;47.524;7.814;2023-06-10T12:49:57;97230.31;;;29.25;33.84
28665;BME280;15850;47.524;7.814;2023-06-10T12:52:22;97213.19;;;29.23;34.82
28665;BME280;15850;47.524;7.814;2023-06-10T12:54:48;96914.75;;;27.93;34.16